createdAt,value
2019-05-21T07:13:33.441Z,51.34
2019-05-21T07:14:05.451Z,51.05
2019-05-21T07:14:37.484Z,51.15
2019-05-21T07:15:09.598Z,50.86
2019-05-21T07:15:41.746Z,51.34
2019-05-21T07:16:13.792Z,51.44
2019-05-21T07:16:45.912Z,51.34
2019-05-21T07:17:18.009Z,51.15
2019-05-21T07:17:50.137Z,51.15
2019-05-21T07:18:22.237Z,51.44
2019-05-21T07:18:54.307Z,51.44
2019-05-21T07:19:26.414Z,51.25
2019-05-21T07:19:58.531Z,51.34
2019-05-21T07:20:30.627Z,51.44
2019-05-21T07:21:02.704Z,51.34
2019-05-21T07:21:34.749Z,51.34
2019-05-21T07:22:13.663Z,51.05
2019-05-21T07:22:45.910Z,51.34
2019-05-21T07:23:18.157Z,50.96
2019-05-21T07:23:50.260Z,51.34
2019-05-21T07:24:22.353Z,51.25
2019-05-21T07:24:54.417Z,51.25
2019-05-21T07:25:26.513Z,51.25
2019-05-21T07:25:58.622Z,51.34
2019-05-21T07:26:30.748Z,51.34
2019-05-21T07:27:02.857Z,51.25
2019-05-21T07:27:34.913Z,51.25
2019-05-21T07:28:07.022Z,51.34
2019-05-21T07:28:39.124Z,51.44
2019-05-21T07:29:11.262Z,51.34
2019-05-21T07:29:43.385Z,51.44
2019-05-21T07:30:15.442Z,51.44
2019-05-21T07:30:47.559Z,50.96
2019-05-21T07:31:19.649Z,51.63
2019-05-21T07:31:51.773Z,51.44
2019-05-21T07:32:23.806Z,51.44
2019-05-21T07:32:56.013Z,51.34
2019-05-21T07:33:28.163Z,51.44
2019-05-21T07:34:00.301Z,51.44
2019-05-21T07:34:32.434Z,51.34
2019-05-21T07:35:04.535Z,51.44
2019-05-21T07:35:36.642Z,50.96
2019-05-21T07:36:08.768Z,51.15
2019-05-21T07:36:40.887Z,51.25
2019-05-21T07:37:13.067Z,51.25
2019-05-21T07:37:45.122Z,51.25
2019-05-21T07:38:17.236Z,51.34
2019-05-21T07:38:54.618Z,51.25
2019-05-21T07:39:26.651Z,51.25
2019-05-21T07:39:58.742Z,51.05
2019-05-21T07:40:30.878Z,51.25
2019-05-21T07:41:03.168Z,51.44
2019-05-21T07:41:35.236Z,51.25
2019-05-21T07:42:07.327Z,51.34
2019-05-21T07:42:39.588Z,51.34
2019-05-21T07:43:11.691Z,50.86
2019-05-21T07:43:43.761Z,51.15
2019-05-21T07:44:15.892Z,51.34
2019-05-21T07:44:47.998Z,50.96
2019-05-21T07:45:20.110Z,51.34
2019-05-21T07:45:52.218Z,51.34
2019-05-21T07:46:24.270Z,51.34
2019-05-21T07:46:56.379Z,51.05
2019-05-21T07:47:28.506Z,51.15
2019-05-21T07:48:00.600Z,50.96
2019-05-21T07:48:32.713Z,51.15
2019-05-21T07:49:04.768Z,51.44
2019-05-21T07:49:36.951Z,51.15
2019-05-21T07:50:09.046Z,51.53
2019-05-21T07:50:41.160Z,51.25
2019-05-21T07:51:13.272Z,51.63
2019-05-21T07:51:45.347Z,51.44
2019-05-21T07:52:17.453Z,51.25
2019-05-21T07:52:49.592Z,51.53
2019-05-21T07:53:21.719Z,51.63
2019-05-21T07:53:53.783Z,51.44
2019-05-21T07:54:28.503Z,51.34
2019-05-21T07:55:00.602Z,51.05
2019-05-21T07:55:32.706Z,51.53
2019-05-21T07:56:04.761Z,51.34
2019-05-21T07:56:36.887Z,51.63
2019-05-21T07:57:09.093Z,50.96
2019-05-21T07:57:41.196Z,51.53
2019-05-21T07:58:13.299Z,51.25
2019-05-21T07:58:45.449Z,50.96
2019-05-21T07:59:17.595Z,51.25
2019-05-21T07:59:49.715Z,51.44
2019-05-21T08:00:21.850Z,51.05
2019-05-21T08:00:54.000Z,51.25
2019-05-21T08:01:26.124Z,50.96
2019-05-21T08:01:58.237Z,51.53
2019-05-21T08:02:30.355Z,51.63
2019-05-21T08:03:02.471Z,51.25
2019-05-21T08:03:34.558Z,51.63
2019-05-21T08:04:07.029Z,51.63
2019-05-21T08:04:39.220Z,51.63
2019-05-21T08:05:11.322Z,51.25
2019-05-21T08:05:43.429Z,51.63
2019-05-21T08:06:15.724Z,51.44
2019-05-21T08:06:47.867Z,51.63
2019-05-21T08:07:19.980Z,51.53
2019-05-21T08:07:52.080Z,51.44
2019-05-21T08:08:24.129Z,51.53
2019-05-21T08:09:14.567Z,51.53
2019-05-21T08:09:46.905Z,51.53
2019-05-21T08:10:19.065Z,51.25
2019-05-21T08:10:51.252Z,51.44
2019-05-21T08:11:23.357Z,51.25
2019-05-21T08:11:55.421Z,51.25
2019-05-21T08:12:39.924Z,51.25
2019-05-21T08:13:12.089Z,51.25
2019-05-21T08:13:44.134Z,51.44
2019-05-21T08:14:16.233Z,51.56
2019-05-21T08:14:48.349Z,51.44
2019-05-21T08:15:20.459Z,51.63
2019-05-21T08:15:52.621Z,51.53
2019-05-21T08:16:24.742Z,51.25
2019-05-21T08:16:56.897Z,51.53
2019-05-21T08:17:28.985Z,51.53
2019-05-21T08:18:01.123Z,51.25
2019-05-21T08:18:33.221Z,51.44
2019-05-21T08:19:05.268Z,51.44
2019-05-21T08:19:37.375Z,51.63
2019-05-21T08:20:11.184Z,51.63
2019-05-21T08:20:43.324Z,51.25
2019-05-21T08:21:15.369Z,51.27
2019-05-21T08:21:47.467Z,51.44
2019-05-21T08:22:19.577Z,51.27
2019-05-21T08:22:51.691Z,51.53
2019-05-21T08:23:23.769Z,51.56
2019-05-21T08:23:55.904Z,51.46
2019-05-21T08:24:28.061Z,51.53
2019-05-21T08:25:00.170Z,51.53
2019-05-21T08:25:32.283Z,51.44
2019-05-21T08:26:04.326Z,51.46
2019-05-21T08:26:36.439Z,51.65
2019-05-21T08:27:08.605Z,51.46
2019-05-21T08:27:40.713Z,51.56
2019-05-21T08:28:12.813Z,51.56
2019-05-21T08:28:44.893Z,51.56
2019-05-21T08:29:16.975Z,51.65
2019-05-21T08:29:49.102Z,51.56
2019-05-21T08:30:21.201Z,51.65
2019-05-21T08:30:53.357Z,51.56
2019-05-21T08:31:25.390Z,51.65
2019-05-21T08:31:57.488Z,51.07
2019-05-21T08:32:29.591Z,51.65
2019-05-21T08:33:01.709Z,51.07
2019-05-21T08:33:33.846Z,51.65
2019-05-21T08:34:06.075Z,51.56
2019-05-21T08:34:38.290Z,51.65
2019-05-21T08:35:10.597Z,51.37
2019-05-21T08:35:42.724Z,51.56
2019-05-21T08:36:14.840Z,51.56
2019-05-21T08:36:46.957Z,51.56
2019-05-21T08:37:19.061Z,51.56
2019-05-21T08:37:51.218Z,51.56
2019-05-21T08:38:23.342Z,51.37
2019-05-21T08:38:55.399Z,51.46
2019-05-21T08:39:29.763Z,51.46
2019-05-21T08:40:01.972Z,51.56
2019-05-21T08:40:34.164Z,51.27
2019-05-21T08:41:06.306Z,51.27
2019-05-21T08:41:38.410Z,51.27
2019-05-21T08:42:10.512Z,51.17
2019-05-21T08:42:42.615Z,51.37
2019-05-21T08:43:14.703Z,51.56
2019-05-21T08:43:46.819Z,51.27
2019-05-21T08:44:18.929Z,51.46
2019-05-21T08:44:51.030Z,51.56
2019-05-21T08:45:23.169Z,51.46
2019-05-21T08:45:55.213Z,51.56
2019-05-21T08:46:27.311Z,51.56
2019-05-21T08:46:59.393Z,51.65
2019-05-21T08:47:31.516Z,51.65
2019-05-21T08:48:03.666Z,51.65
2019-05-21T08:48:35.778Z,51.37
2019-05-21T08:49:07.883Z,51.37
2019-05-21T08:49:39.981Z,51.17
2019-05-21T08:50:15.904Z,51.37
2019-05-21T08:50:47.990Z,51.65
2019-05-21T08:51:20.129Z,51.27
2019-05-21T08:51:52.258Z,51.37
2019-05-21T08:52:24.304Z,51.37
2019-05-21T08:52:56.435Z,51.37
2019-05-21T08:53:28.566Z,51.37
2019-05-21T08:54:00.657Z,51.56
2019-05-21T08:54:32.852Z,51.37
2019-05-21T08:55:04.946Z,51.37
2019-05-21T08:55:37.087Z,51.27
2019-05-21T08:56:09.234Z,51.29
2019-05-21T08:56:41.342Z,51.56
2019-05-21T08:57:13.448Z,51.29
2019-05-21T08:57:45.535Z,51.39
2019-05-21T08:58:17.659Z,51.49
2019-05-21T08:58:49.786Z,51.49
2019-05-21T08:59:21.924Z,51.49
2019-05-21T08:59:53.990Z,51.29
2019-05-21T09:00:26.264Z,51.2
2019-05-21T09:00:58.378Z,51.39
2019-05-21T09:01:30.492Z,51.39
2019-05-21T09:02:02.626Z,51.29
2019-05-21T09:02:34.706Z,51.29
2019-05-21T09:03:06.818Z,51.29
2019-05-21T09:03:38.943Z,51.39
2019-05-21T09:04:11.065Z,51.59
2019-05-21T09:05:18.698Z,51.39
2019-05-21T09:05:50.831Z,51.39
2019-05-21T09:06:22.817Z,51.39
2019-05-21T09:06:54.933Z,51.29
2019-05-21T09:07:27.067Z,51.49
2019-05-21T09:07:59.169Z,51.29
2019-05-21T09:08:31.238Z,51.39
2019-05-21T09:09:03.335Z,51.32
2019-05-21T09:09:51.695Z,51.39
2019-05-21T09:10:24.013Z,51.39
2019-05-21T09:10:56.141Z,51.42
2019-05-21T09:11:28.250Z,51.51
2019-05-21T09:12:00.400Z,51.32
2019-05-21T09:12:32.523Z,51.51
2019-05-21T09:13:04.757Z,51.42
2019-05-21T09:13:36.860Z,51.32
2019-05-21T09:14:08.970Z,51.32
2019-05-21T09:14:41.009Z,51.51
2019-05-21T09:15:13.188Z,51.13
2019-05-21T09:15:45.565Z,51.51
2019-05-21T09:16:17.681Z,51.51
2019-05-21T09:16:49.753Z,51.13
2019-05-21T09:17:21.962Z,51.61
2019-05-21T09:17:54.135Z,50.84
2019-05-21T09:18:26.228Z,51.13
2019-05-21T09:18:58.366Z,51.13
2019-05-21T09:19:30.474Z,51.23
2019-05-21T09:20:02.978Z,51.03
2019-05-21T09:20:35.255Z,51.13
2019-05-21T09:21:07.391Z,51.13
2019-05-21T09:21:39.505Z,51.13
2019-05-21T09:22:11.664Z,51.03
2019-05-21T09:22:43.778Z,51.15
2019-05-21T09:23:15.896Z,51.13
2019-05-21T09:23:48.122Z,51.03
2019-05-21T09:24:20.188Z,51.15
2019-05-21T09:24:52.301Z,51.25
2019-05-21T09:25:24.422Z,51.06
2019-05-21T09:25:56.542Z,50.67
2019-05-21T09:26:28.667Z,50.76
2019-05-21T09:27:00.724Z,50.67
2019-05-21T09:27:32.843Z,50.76
2019-05-21T09:28:04.967Z,51.25
2019-05-21T09:28:37.096Z,51.06
2019-05-21T09:29:09.204Z,51.06
2019-05-21T09:29:41.261Z,51.15
2019-05-21T09:30:13.365Z,51.15
2019-05-21T09:30:45.455Z,51.15
2019-05-21T09:31:17.590Z,51.06
2019-05-21T09:31:49.655Z,51.06
2019-05-21T09:32:24.586Z,50.96
2019-05-21T09:32:56.686Z,51.06
2019-05-21T09:33:28.818Z,51.06
2019-05-21T09:34:00.867Z,50.96
2019-05-21T09:34:49.447Z,51.15
2019-05-21T09:35:21.590Z,51.15
2019-05-21T09:35:53.697Z,51.25
2019-05-21T09:36:25.892Z,51.06
2019-05-21T09:36:58.054Z,51.15
2019-05-21T09:37:30.131Z,51.15
2019-05-21T09:38:02.226Z,51.15
2019-05-21T09:38:34.325Z,51.15
2019-05-21T09:39:06.408Z,51.15
2019-05-21T09:39:38.511Z,51.15
2019-05-21T09:40:10.609Z,51.15
2019-05-21T09:40:42.727Z,51.15
2019-05-21T09:41:14.838Z,51.15
2019-05-21T09:41:46.950Z,51.06
2019-05-21T09:42:19.076Z,51.06
2019-05-21T09:42:51.125Z,51.06
2019-05-21T09:43:23.231Z,51.15
2019-05-21T09:43:55.326Z,51.15
2019-05-21T09:44:27.457Z,50.86
2019-05-21T09:44:59.544Z,51.25
2019-05-21T09:45:31.669Z,51.44
2019-05-21T09:46:03.771Z,51.15
2019-05-21T09:46:35.866Z,51.06
2019-05-21T09:47:07.983Z,51.15
2019-05-21T09:47:40.116Z,50.96
2019-05-21T09:48:12.255Z,51.15
2019-05-21T09:48:44.406Z,51.06
2019-05-21T09:49:16.521Z,51.15
2019-05-21T09:49:48.640Z,51.25
2019-05-21T09:50:20.704Z,51.15
2019-05-21T09:50:52.800Z,51.54
2019-05-21T09:51:24.918Z,51.54
2019-05-21T09:51:57.020Z,51.15
2019-05-21T09:52:29.145Z,51.44
2019-05-21T09:53:01.234Z,51.54
2019-05-21T09:53:33.427Z,51.44
2019-05-21T09:54:05.591Z,51.15
2019-05-21T09:54:37.721Z,51.54
2019-05-21T09:55:09.807Z,51.44
2019-05-21T09:55:41.929Z,51.54
2019-05-21T09:56:14.040Z,51.44
2019-05-21T09:56:46.139Z,51.15
2019-05-21T09:57:18.231Z,51.42
2019-05-21T09:57:50.285Z,51.15
2019-05-21T09:58:22.407Z,51.42
2019-05-21T09:58:54.547Z,51.25
2019-05-21T09:59:26.656Z,51.44
2019-05-21T09:59:58.835Z,51.51
2019-05-21T10:00:31.180Z,51.03
2019-05-21T10:01:03.296Z,51.44
2019-05-21T10:01:35.428Z,51.32
2019-05-21T10:02:07.565Z,51.42
2019-05-21T10:02:39.621Z,51.42
2019-05-21T10:03:11.734Z,51.51
2019-05-21T10:03:44.049Z,51.03
2019-05-21T10:04:16.455Z,51.44
2019-05-21T10:04:48.567Z,51.35
2019-05-21T10:05:20.635Z,51.42
2019-05-21T10:05:52.740Z,51.42
2019-05-21T10:06:24.858Z,51.51
2019-05-21T10:06:56.983Z,51.25
2019-05-21T10:07:40.881Z,51.42
2019-05-21T10:08:12.991Z,51.32
2019-05-21T10:08:45.103Z,51.32
2019-05-21T10:09:17.212Z,51.42
2019-05-21T10:09:49.307Z,51.32
2019-05-21T10:10:21.389Z,51.42
2019-05-21T10:10:53.504Z,51.32
2019-05-21T10:11:25.630Z,51.64
2019-05-21T10:11:57.732Z,51.32
2019-05-21T10:12:29.814Z,51.51
2019-05-21T10:13:01.923Z,51.35
2019-05-21T10:13:34.031Z,51.42
2019-05-21T10:14:06.143Z,51.42
2019-05-21T10:14:38.255Z,51.64
2019-05-21T10:15:10.307Z,51.32
2019-05-21T10:15:42.427Z,51.42
2019-05-21T10:16:14.610Z,51.51
2019-05-21T10:16:46.722Z,51.51
2019-05-21T10:17:18.836Z,51.42
2019-05-21T10:17:50.884Z,51.23
2019-05-21T10:18:22.996Z,51.42
2019-05-21T10:18:55.099Z,51.42
2019-05-21T10:19:27.193Z,51.32
2019-05-21T10:19:59.570Z,51.32
2019-05-21T10:20:31.621Z,51.42
2019-05-21T10:21:03.742Z,51.42
2019-05-21T10:21:35.863Z,51.61
2019-05-21T10:22:08.518Z,51.61
2019-05-21T10:22:42.108Z,51.23
2019-05-21T10:23:14.231Z,51.71
2019-05-21T10:23:46.465Z,51.51
2019-05-21T10:24:18.738Z,51.51
2019-05-21T10:24:50.802Z,51.61
2019-05-21T10:25:22.903Z,51.51
2019-05-21T10:25:55.007Z,51.32
2019-05-21T10:26:27.123Z,51.51
2019-05-21T10:26:59.292Z,51.61
2019-05-21T10:27:35.062Z,51.51
2019-05-21T10:28:07.157Z,51.32
2019-05-21T10:28:39.292Z,51.13
2019-05-21T10:29:11.427Z,51.61
2019-05-21T10:29:43.517Z,51.51
2019-05-21T10:30:15.630Z,51.81
2019-05-21T10:30:47.748Z,51.61
2019-05-21T10:31:19.802Z,51.61
2019-05-21T10:31:51.903Z,51.42
2019-05-21T10:32:24.022Z,51.71
2019-05-21T10:32:56.146Z,51.13
2019-05-21T10:33:28.249Z,51.71
2019-05-21T10:34:00.314Z,51.71
2019-05-21T10:34:32.423Z,51.71
2019-05-21T10:35:05.652Z,51.32
2019-05-21T10:35:38.331Z,51.71
2019-05-21T10:36:10.372Z,51.71
2019-05-21T10:36:42.467Z,51.23
2019-05-21T10:37:14.590Z,51.61
2019-05-21T10:37:55.651Z,51.13
2019-05-21T10:38:27.755Z,51.71
2019-05-21T10:38:59.808Z,51.61
2019-05-21T10:39:31.922Z,51.42
2019-05-21T10:40:04.045Z,51.42
2019-05-21T10:40:36.147Z,51.71
2019-05-21T10:41:08.250Z,51.42
2019-05-21T10:41:40.306Z,51.9
2019-05-21T10:42:12.428Z,51.78
2019-05-21T10:42:44.555Z,51.59
2019-05-21T10:43:16.671Z,51.9
2019-05-21T10:43:48.786Z,51.9
2019-05-21T10:44:20.851Z,51.49
2019-05-21T10:44:52.977Z,51.9
2019-05-21T10:45:25.080Z,51.49
2019-05-21T10:45:57.187Z,51.71
2019-05-21T10:46:29.315Z,51.78
2019-05-21T10:47:01.414Z,51.78
2019-05-21T10:47:33.535Z,51.97
2019-05-21T10:48:05.650Z,51.61
2019-05-21T10:48:37.764Z,51.71
2019-05-21T10:49:09.815Z,51.87
2019-05-21T10:49:41.931Z,51.87
2019-05-21T10:50:14.039Z,51.81
2019-05-21T10:50:46.181Z,51.87
2019-05-21T10:51:18.275Z,51.87
2019-05-21T10:51:50.332Z,51.87
2019-05-21T10:52:22.481Z,51.49
2019-05-21T10:52:54.596Z,51.49
2019-05-21T10:53:26.682Z,51.59
2019-05-21T10:53:58.982Z,51.97
2019-05-21T10:54:31.067Z,52.07
2019-05-21T10:55:03.169Z,51.97
2019-05-21T10:55:35.290Z,51.97
2019-05-21T10:56:07.396Z,52.07
2019-05-21T10:56:48.746Z,51.49
2019-05-21T10:57:20.813Z,51.49
2019-05-21T10:57:52.968Z,52.07
2019-05-21T10:58:25.086Z,52.07
2019-05-21T10:58:57.197Z,51.97
2019-05-21T10:59:29.318Z,51.78
2019-05-21T11:00:01.569Z,51.78
2019-05-21T11:00:33.923Z,52.26
2019-05-21T11:01:06.047Z,52.17
2019-05-21T11:01:38.170Z,52.26
2019-05-21T11:02:10.253Z,51.97
2019-05-21T11:02:42.373Z,52.26
2019-05-21T11:03:14.624Z,52.17
2019-05-21T11:03:46.734Z,52.65
2019-05-21T11:04:18.850Z,52.55
2019-05-21T11:04:50.881Z,52.17
2019-05-21T11:05:23.000Z,51.78
2019-05-21T11:06:10.678Z,52.55
2019-05-21T11:06:42.783Z,51.59
2019-05-21T11:07:14.889Z,52.36
2019-05-21T11:07:47.071Z,52.55
2019-05-21T11:08:25.456Z,52.45
2019-05-21T11:08:57.630Z,52.55
2019-05-21T11:09:29.713Z,52.45
2019-05-21T11:10:01.881Z,52.45
2019-05-21T11:10:34.264Z,52.45
2019-05-21T11:11:06.365Z,51.59
2019-05-21T11:11:38.520Z,51.87
2019-05-21T11:12:10.607Z,51.87
2019-05-21T11:12:42.711Z,52.45
2019-05-21T11:13:14.819Z,51.87
2019-05-21T11:13:46.944Z,52.55
2019-05-21T11:14:19.071Z,52.55
2019-05-21T11:14:51.125Z,52.36
2019-05-21T11:15:23.284Z,52.36
2019-05-21T11:15:55.458Z,51.78
2019-05-21T11:16:27.585Z,52.45
2019-05-21T11:16:59.627Z,52.07
2019-05-21T11:17:46.882Z,52.36
2019-05-21T11:18:43.245Z,52.07
2019-05-21T11:19:15.370Z,52.36
2019-05-21T11:19:47.486Z,51.97
2019-05-21T11:20:19.535Z,51.97
2019-05-21T11:20:52.276Z,51.97
2019-05-21T11:21:24.461Z,52.26
2019-05-21T11:21:56.562Z,52.36
2019-05-21T11:22:28.697Z,52.45
2019-05-21T11:23:00.765Z,52.07
2019-05-21T11:23:32.920Z,52.36
2019-05-21T11:24:05.539Z,52.36
2019-05-21T11:24:37.776Z,51.78
2019-05-21T11:25:09.831Z,52.26
2019-05-21T11:25:41.935Z,52.17
2019-05-21T11:26:14.045Z,52.33
2019-05-21T11:26:46.205Z,52.17
2019-05-21T11:27:18.329Z,52.26
2019-05-21T11:27:50.503Z,52.17
2019-05-21T11:28:22.861Z,52.23
2019-05-21T11:28:54.971Z,52.17
2019-05-21T11:29:27.079Z,52.36
2019-05-21T11:29:59.397Z,52.17
2019-05-21T11:30:31.510Z,52.26
2019-05-21T11:31:03.841Z,52.17
2019-05-21T11:31:35.947Z,52.17
2019-05-21T11:32:08.048Z,52.26
2019-05-21T11:32:40.105Z,52.26
2019-05-21T11:33:12.215Z,52.33
2019-05-21T11:33:44.354Z,52.23
2019-05-21T11:34:16.476Z,52.26
2019-05-21T11:34:50.916Z,52.17
2019-05-21T11:35:22.971Z,52.17
2019-05-21T11:35:55.069Z,52.45
2019-05-21T11:36:27.177Z,52.17
2019-05-21T11:36:59.295Z,52.36
2019-05-21T11:37:31.402Z,52.36
2019-05-21T11:38:04.189Z,52.36
2019-05-21T11:38:40.739Z,52.14
2019-05-21T11:39:12.793Z,52.26
2019-05-21T11:39:44.909Z,52.26
2019-05-21T11:40:17.070Z,52.14
2019-05-21T11:40:51.776Z,52.23
2019-05-21T11:41:23.803Z,52.33
2019-05-21T11:41:55.915Z,52.43
2019-05-21T11:42:28.049Z,52.14
2019-05-21T11:43:00.209Z,52.36
2019-05-21T11:43:32.312Z,52.33
2019-05-21T11:44:04.438Z,52.14
2019-05-21T11:44:36.573Z,52.14
2019-05-21T11:45:08.690Z,52.23
2019-05-21T11:45:40.799Z,52.23
2019-05-21T11:46:12.913Z,52.23
2019-05-21T11:46:45.031Z,52.43
2019-05-21T11:47:17.217Z,52.33
2019-05-21T11:47:49.320Z,52.33
2019-05-21T11:48:21.382Z,52.23
2019-05-21T11:48:53.471Z,52.23
2019-05-21T11:49:25.666Z,52.14
2019-05-21T11:49:57.786Z,52.14
2019-05-21T11:50:29.841Z,52.62
2019-05-21T11:51:01.975Z,52.23
2019-05-21T11:51:34.100Z,52.23
2019-05-21T11:52:06.210Z,52.33
2019-05-21T11:52:38.335Z,52.23
2019-05-21T11:53:10.375Z,52.33
2019-05-21T11:53:42.469Z,52.33
2019-05-21T11:54:14.584Z,52.23
2019-05-21T11:54:46.699Z,52.14
2019-05-21T11:55:18.807Z,52.72
2019-05-21T11:55:50.864Z,52.23
2019-05-21T11:56:23.002Z,52.23
2019-05-21T11:56:55.116Z,52.62
2019-05-21T11:57:27.225Z,52.14
2019-05-21T11:57:59.350Z,52.62
2019-05-21T11:58:31.408Z,52.72
2019-05-21T11:59:03.632Z,52.04
2019-05-21T11:59:53.307Z,52.53
2019-05-21T12:00:54.686Z,52.62
2019-05-21T12:01:29.642Z,52.62
2019-05-21T12:02:04.034Z,52.62
2019-05-21T12:02:36.433Z,52.62
2019-05-21T12:03:08.538Z,52.14
2019-05-21T12:03:40.704Z,52.62
2019-05-21T12:04:12.859Z,52.62
2019-05-21T12:04:46.246Z,52.72
2019-05-21T12:05:19.827Z,52.81
2019-05-21T12:05:54.251Z,52.72
2019-05-21T12:06:27.215Z,52.53
2019-05-21T12:07:04.093Z,52.72
2019-05-21T12:07:39.227Z,52.72
2019-05-21T12:08:12.970Z,52.23
